sensor_id;sensor_type;location;lat;lon;timestamp;pressure;altitude;pressure_sealevel;temperature;humidity
69187;BME280;56301;56.864;60.554;2023-02-17T00:00:53;99825.81;;;25.04;33.36
69187;BME280;56301;56.864;60.554;2023-02-17T00:03:15;99823.19;;;25.12;33.87
69187;BME280;56301;56.864;60.554;2023-02-17T00:05:38;99830.03;;;25.24;33.12
69187;BME280;56301;56.864;60.554;2023-02-17T00:08:00;99828.91;;;25.35;33.08
69187;BME280;56301;56.864;60.554;2023-02-17T00:10:23;99829.63;;;25.45;32.82
69187;BME280;56301;56.864;60.554;2023-02-17T00:12:45;99825.25;;;25.52;33.32
69187;BME280;56301;56.864;60.554;2023-02-17T00:15:08;99822.91;;;25.57;33.15
69187;BME280;56301;56.864;60.554;2023-02-17T00:17:30;99823.44;;;25.61;32.85
69187;BME280;56301;56.864;60.554;2023-02-17T00:19:53;99825.47;;;25.67;32.63
69187;BME280;56301;56.864;60.554;2023-02-17T00:22:16;99830.25;;;25.73;33.73
69187;BME280;56301;56.864;60.554;2023-02-17T00:24:38;99829.06;;;25.76;33.78
69187;BME280;56301;56.864;60.554;2023-02-17T00:27:01;99821.97;;;25.75;33.79
69187;BME280;56301;56.864;60.554;2023-02-17T00:29:24;99819.41;;;25.73;32.72
69187;BME280;56301;56.864;60.554;2023-02-17T00:31:46;99815.16;;;25.70;33.04
69187;BME280;56301;56.864;60.554;2023-02-17T00:34:09;99815.50;;;25.67;33.42
69187;BME280;56301;56.864;60.554;2023-02-17T00:36:31;99820.53;;;25.62;32.92
69187;BME280;56301;56.864;60.554;2023-02-17T00:38:54;99825.44;;;25.59;33.57
69187;BME280;56301;56.864;60.554;2023-02-17T00:41:17;99815.44;;;25.59;32.94
69187;BME280;56301;56.864;60.554;2023-02-17T00:43:40;99817.50;;;25.57;33.59
69187;BME280;56301;56.864;60.554;2023-02-17T00:46:03;99818.84;;;25.53;33.87
69187;BME280;56301;56.864;60.554;2023-02-17T00:48:25;99815.59;;;25.50;33.91
69187;BME280;56301;56.864;60.554;2023-02-17T00:50:47;99813.34;;;25.45;32.59
69187;BME280;56301;56.864;60.554;2023-02-17T00:53:10;99805.06;;;25.38;32.57
69187;BME280;56301;56.864;60.554;2023-02-17T00:55:33;99811.78;;;25.34;32.57
69187;BME280;56301;56.864;60.554;2023-02-17T00:57:55;99805.00;;;25.30;32.82
69187;BME280;56301;56.864;60.554;2023-02-17T01:00:17;99798.06;;;25.28;32.51
69187;BME280;56301;56.864;60.554;2023-02-17T01:02:40;99800.78;;;25.28;32.64
69187;BME280;56301;56.864;60.554;2023-02-17T01:05:03;99805.19;;;25.29;32.68
69187;BME280;56301;56.864;60.554;2023-02-17T01:07:25;99799.06;;;25.27;33.25
69187;BME280;56301;56.864;60.554;2023-02-17T01:09:48;99796.53;;;25.25;33.25
69187;BME280;56301;56.864;60.554;2023-02-17T01:12:11;99788.72;;;25.22;32.77
69187;BME280;56301;56.864;60.554;2023-02-17T01:14:34;99793.97;;;25.24;32.96
69187;BME280;56301;56.864;60.554;2023-02-17T01:16:56;99787.88;;;25.21;32.69
69187;BME280;56301;56.864;60.554;2023-02-17T01:19:18;99785.16;;;25.21;32.59
69187;BME280;56301;56.864;60.554;2023-02-17T01:21:44;99783.63;;;25.19;32.41
69187;BME280;56301;56.864;60.554;2023-02-17T01:24:06;99780.25;;;25.17;32.97
69187;BME280;56301;56.864;60.554;2023-02-17T01:26:31;99781.22;;;25.16;31.88
69187;BME280;56301;56.864;60.554;2023-02-17T01:28:56;99778.38;;;25.17;31.35
69187;BME280;56301;56.864;60.554;2023-02-17T01:31:20;99774.47;;;25.20;31.08
69187;BME280;56301;56.864;60.554;2023-02-17T01:33:42;99777.84;;;25.14;31.50
69187;BME280;56301;56.864;60.554;2023-02-17T01:36:06;99768.66;;;25.07;32.42
69187;BME280;56301;56.864;60.554;2023-02-17T01:38:28;99766.25;;;25.04;32.57
69187;BME280;56301;56.864;60.554;2023-02-17T01:40:51;99769.81;;;25.04;32.03
69187;BME280;56301;56.864;60.554;2023-02-17T01:43:16;99763.06;;;25.08;31.56
69187;BME280;56301;56.864;60.554;2023-02-17T01:45:40;99764.97;;;25.16;31.12
69187;BME280;56301;56.864;60.554;2023-02-17T01:48:11;99766.03;;;25.23;30.38
69187;BME280;56301;56.864;60.554;2023-02-17T01:50:38;99764.88;;;25.26;30.88
69187;BME280;56301;56.864;60.554;2023-02-17T01:53:01;99765.56;;;25.28;30.39
69187;BME280;56301;56.864;60.554;2023-02-17T01:55:25;99767.41;;;25.27;30.21
69187;BME280;56301;56.864;60.554;2023-02-17T01:57:48;99768.78;;;25.31;29.79
69187;BME280;56301;56.864;60.554;2023-02-17T02:00:13;99767.91;;;25.31;30.05
69187;BME280;56301;56.864;60.554;2023-02-17T02:02:36;99762.69;;;25.29;30.98
69187;BME280;56301;56.864;60.554;2023-02-17T02:04:59;99759.44;;;25.26;31.12
69187;BME280;56301;56.864;60.554;2023-02-17T02:07:24;99756.72;;;25.26;31.18
69187;BME280;56301;56.864;60.554;2023-02-17T02:09:49;99754.56;;;25.29;30.88
69187;BME280;56301;56.864;60.554;2023-02-17T02:12:17;99747.47;;;25.36;30.51
69187;BME280;56301;56.864;60.554;2023-02-17T02:14:40;99751.53;;;25.40;30.36
69187;BME280;56301;56.864;60.554;2023-02-17T02:17:14;99755.56;;;25.28;31.27
69187;BME280;56301;56.864;60.554;2023-02-17T02:23:05;99759.34;;;25.09;32.35
69187;BME280;56301;56.864;60.554;2023-02-17T02:30:37;99751.88;;;25.03;32.30
69187;BME280;56301;56.864;60.554;2023-02-17T02:35:35;99755.59;;;25.02;31.54
69187;BME280;56301;56.864;60.554;2023-02-17T02:40:25;99755.22;;;24.97;32.30
69187;BME280;56301;56.864;60.554;2023-02-17T02:42:49;99749.13;;;24.95;32.62
69187;BME280;56301;56.864;60.554;2023-02-17T02:45:12;99755.22;;;24.97;32.91
69187;BME280;56301;56.864;60.554;2023-02-17T02:47:42;99752.69;;;24.95;33.16
69187;BME280;56301;56.864;60.554;2023-02-17T02:50:05;99753.84;;;24.93;33.08
69187;BME280;56301;56.864;60.554;2023-02-17T02:52:31;99744.19;;;24.90;32.50
69187;BME280;56301;56.864;60.554;2023-02-17T02:54:59;99741.97;;;24.86;32.20
69187;BME280;56301;56.864;60.554;2023-02-17T02:57:28;99739.56;;;24.83;32.88
69187;BME280;56301;56.864;60.554;2023-02-17T03:00:07;99746.00;;;24.82;32.62
69187;BME280;56301;56.864;60.554;2023-02-17T03:05:06;99749.88;;;24.79;32.77
69187;BME280;56301;56.864;60.554;2023-02-17T03:08:14;99749.56;;;24.82;32.26
69187;BME280;56301;56.864;60.554;2023-02-17T03:10:17;99746.31;;;24.79;32.67
69187;BME280;56301;56.864;60.554;2023-02-17T03:12:40;99741.91;;;24.78;32.68
69187;BME280;56301;56.864;60.554;2023-02-17T03:15:18;99741.91;;;24.78;32.77
69187;BME280;56301;56.864;60.554;2023-02-17T03:17:42;99750.03;;;24.78;32.24
69187;BME280;56301;56.864;60.554;2023-02-17T03:20:05;99745.47;;;24.78;32.19
69187;BME280;56301;56.864;60.554;2023-02-17T03:22:30;99745.47;;;24.78;32.70
69187;BME280;56301;56.864;60.554;2023-02-17T03:24:55;99742.94;;;24.77;32.63
69187;BME280;56301;56.864;60.554;2023-02-17T03:27:17;99739.34;;;24.76;32.62
69187;BME280;56301;56.864;60.554;2023-02-17T03:29:40;99741.22;;;24.76;32.38
69187;BME280;56301;56.864;60.554;2023-02-17T03:32:02;99734.66;;;24.78;32.89
69187;BME280;56301;56.864;60.554;2023-02-17T03:34:25;99731.75;;;24.80;31.66
69187;BME280;56301;56.864;60.554;2023-02-17T03:36:47;99739.56;;;24.83;32.53
69187;BME280;56301;56.864;60.554;2023-02-17T03:39:10;99737.72;;;24.83;31.00
69187;BME280;56301;56.864;60.554;2023-02-17T03:41:32;99727.22;;;24.80;30.71
69187;BME280;56301;56.864;60.554;2023-02-17T03:43:54;99750.03;;;24.78;32.20
69187;BME280;56301;56.864;60.554;2023-02-17T03:46:17;99744.63;;;24.78;32.40
69187;BME280;56301;56.864;60.554;2023-02-17T03:48:39;99734.81;;;24.77;31.26
69187;BME280;56301;56.864;60.554;2023-02-17T03:51:35;99737.53;;;24.77;32.14
69187;BME280;56301;56.864;60.554;2023-02-17T03:53:50;99746.31;;;24.79;30.92
69187;BME280;56301;56.864;60.554;2023-02-17T03:56:13;99751.19;;;24.75;31.66
69187;BME280;56301;56.864;60.554;2023-02-17T03:58:36;99751.69;;;24.70;31.87
69187;BME280;56301;56.864;60.554;2023-02-17T04:00:59;99764.41;;;24.78;31.70
69187;BME280;56301;56.864;60.554;2023-02-17T04:03:21;99760.34;;;24.74;32.50
69187;BME280;56301;56.864;60.554;2023-02-17T04:05:44;99772.50;;;24.70;32.17
69187;BME280;56301;56.864;60.554;2023-02-17T04:08:06;99762.13;;;24.65;32.07
69187;BME280;56301;56.864;60.554;2023-02-17T04:10:29;99770.41;;;24.64;32.24
69187;BME280;56301;56.864;60.554;2023-02-17T04:12:51;99767.19;;;24.60;31.61
69187;BME280;56301;56.864;60.554;2023-02-17T04:15:13;99763.63;;;24.60;31.69
69187;BME280;56301;56.864;60.554;2023-02-17T04:17:36;99767.34;;;24.59;32.04
69187;BME280;56301;56.864;60.554;2023-02-17T04:19:58;99759.38;;;24.57;31.67
69187;BME280;56301;56.864;60.554;2023-02-17T04:22:21;99764.78;;;24.57;32.06
69187;BME280;56301;56.864;60.554;2023-02-17T04:24:43;99766.47;;;24.58;31.60
69187;BME280;56301;56.864;60.554;2023-02-17T04:27:06;99763.75;;;24.58;31.57
69187;BME280;56301;56.864;60.554;2023-02-17T04:29:28;99758.34;;;24.58;31.75
69187;BME280;56301;56.864;60.554;2023-02-17T04:31:50;99756.53;;;24.59;31.42
69187;BME280;56301;56.864;60.554;2023-02-17T04:34:13;99766.47;;;24.58;31.61
69187;BME280;56301;56.864;60.554;2023-02-17T04:36:35;99769.19;;;24.58;31.41
69187;BME280;56301;56.864;60.554;2023-02-17T04:38:58;99767.34;;;24.59;31.62
69187;BME280;56301;56.864;60.554;2023-02-17T04:41:20;99761.06;;;24.58;31.75
69187;BME280;56301;56.864;60.554;2023-02-17T04:43:43;99760.91;;;24.60;31.25
69187;BME280;56301;56.864;60.554;2023-02-17T04:46:05;99759.06;;;24.60;31.19
69187;BME280;56301;56.864;60.554;2023-02-17T04:48:28;99760.91;;;24.60;31.30
69187;BME280;56301;56.864;60.554;2023-02-17T04:50:50;99756.34;;;24.60;31.45
69187;BME280;56301;56.864;60.554;2023-02-17T04:53:13;99759.91;;;24.61;31.49
69187;BME280;56301;56.864;60.554;2023-02-17T04:55:36;99763.44;;;24.61;30.97
69187;BME280;56301;56.864;60.554;2023-02-17T04:57:58;99757.06;;;24.62;31.39
69187;BME280;56301;56.864;60.554;2023-02-17T05:00:21;99762.47;;;24.62;31.35
69187;BME280;56301;56.864;60.554;2023-02-17T05:02:44;99757.91;;;24.63;31.41
69187;BME280;56301;56.864;60.554;2023-02-17T05:05:06;99757.72;;;24.64;30.94
69187;BME280;56301;56.864;60.554;2023-02-17T05:07:29;99752.31;;;24.64;30.81
69187;BME280;56301;56.864;60.554;2023-02-17T05:09:51;99749.63;;;24.64;31.03
69187;BME280;56301;56.864;60.554;2023-02-17T05:12:14;99746.91;;;24.64;31.21
69187;BME280;56301;56.864;60.554;2023-02-17T05:14:36;99741.50;;;24.64;30.94
69187;BME280;56301;56.864;60.554;2023-02-17T05:16:59;99732.34;;;24.65;31.14
69187;BME280;56301;56.864;60.554;2023-02-17T05:19:21;99740.47;;;24.65;31.15
69187;BME280;56301;56.864;60.554;2023-02-17T05:21:44;99734.22;;;24.65;31.16
69187;BME280;56301;56.864;60.554;2023-02-17T05:24:06;99736.78;;;24.66;31.30
69187;BME280;56301;56.864;60.554;2023-02-17T05:26:29;99733.22;;;24.66;30.71
69187;BME280;56301;56.864;60.554;2023-02-17T05:28:51;99727.81;;;24.66;31.43
69187;BME280;56301;56.864;60.554;2023-02-17T05:31:14;99724.25;;;24.65;31.01
69187;BME280;56301;56.864;60.554;2023-02-17T05:33:36;99728.66;;;24.66;31.14
69187;BME280;56301;56.864;60.554;2023-02-17T05:36:02;99727.66;;;24.67;30.95
69187;BME280;56301;56.864;60.554;2023-02-17T05:38:25;99722.22;;;24.67;30.88
69187;BME280;56301;56.864;60.554;2023-02-17T05:40:48;99724.75;;;24.69;30.84
69187;BME280;56301;56.864;60.554;2023-02-17T05:43:11;99725.66;;;24.69;30.90
69187;BME280;56301;56.864;60.554;2023-02-17T05:45:33;99725.66;;;24.69;30.77
69187;BME280;56301;56.864;60.554;2023-02-17T05:47:55;99726.50;;;24.70;30.67
69187;BME280;56301;56.864;60.554;2023-02-17T05:50:18;99723.06;;;24.68;30.54
69187;BME280;56301;56.864;60.554;2023-02-17T05:52:40;99714.81;;;24.69;30.92
69187;BME280;56301;56.864;60.554;2023-02-17T05:55:03;99720.22;;;24.69;30.72
69187;BME280;56301;56.864;60.554;2023-02-17T05:57:26;99720.22;;;24.69;30.77
69187;BME280;56301;56.864;60.554;2023-02-17T05:59:48;99723.59;;;24.71;30.42
69187;BME280;56301;56.864;60.554;2023-02-17T06:02:10;99719.03;;;24.72;30.84
69187;BME280;56301;56.864;60.554;2023-02-17T06:04:33;99728.00;;;24.72;31.13
69187;BME280;56301;56.864;60.554;2023-02-17T06:06:56;99727.84;;;24.74;31.15
69187;BME280;56301;56.864;60.554;2023-02-17T06:09:18;99732.44;;;24.73;30.57
69187;BME280;56301;56.864;60.554;2023-02-17T06:11:40;99722.28;;;24.76;30.83
69187;BME280;56301;56.864;60.554;2023-02-17T06:14:03;99722.97;;;24.78;30.78
69187;BME280;56301;56.864;60.554;2023-02-17T06:16:25;99719.25;;;24.79;30.78
69187;BME280;56301;56.864;60.554;2023-02-17T06:18:48;99719.25;;;24.79;30.31
69187;BME280;56301;56.864;60.554;2023-02-17T06:21:10;99715.53;;;24.80;30.33
69187;BME280;56301;56.864;60.554;2023-02-17T06:23:32;99718.09;;;24.81;30.67
69187;BME280;56301;56.864;60.554;2023-02-17T06:25:55;99715.22;;;24.83;30.54
69187;BME280;56301;56.864;60.554;2023-02-17T06:28:18;99710.63;;;24.83;30.33
69187;BME280;56301;56.864;60.554;2023-02-17T06:30:41;99716.75;;;24.85;30.20
69187;BME280;56301;56.864;60.554;2023-02-17T06:33:03;99702.91;;;24.88;30.38
69187;BME280;56301;56.864;60.554;2023-02-17T06:35:25;99710.03;;;24.97;30.61
69187;BME280;56301;56.864;60.554;2023-02-17T06:37:48;99701.97;;;25.06;29.96
69187;BME280;56301;56.864;60.554;2023-02-17T06:40:10;99699.63;;;25.11;30.18
69187;BME280;56301;56.864;60.554;2023-02-17T06:42:33;99705.06;;;25.19;29.53
69187;BME280;56301;56.864;60.554;2023-02-17T06:44:56;99696.97;;;25.27;29.22
69187;BME280;56301;56.864;60.554;2023-02-17T06:47:18;99692.75;;;25.33;29.31
69187;BME280;56301;56.864;60.554;2023-02-17T06:49:42;99696.84;;;25.37;29.52
69187;BME280;56301;56.864;60.554;2023-02-17T06:52:05;99691.09;;;25.40;30.07
69187;BME280;56301;56.864;60.554;2023-02-17T06:54:27;99693.97;;;25.38;29.73
69187;BME280;56301;56.864;60.554;2023-02-17T06:56:50;99679.41;;;25.39;29.20
69187;BME280;56301;56.864;60.554;2023-02-17T06:59:13;99678.56;;;25.39;29.64
69187;BME280;56301;56.864;60.554;2023-02-17T07:01:35;99673.16;;;25.39;29.76
69187;BME280;56301;56.864;60.554;2023-02-17T07:03:58;99671.09;;;25.41;29.90
69187;BME280;56301;56.864;60.554;2023-02-17T07:06:21;99664.34;;;25.45;30.37
69187;BME280;56301;56.864;60.554;2023-02-17T07:08:43;99661.47;;;25.55;29.78
69187;BME280;56301;56.864;60.554;2023-02-17T07:11:06;99663.84;;;25.58;29.30
69187;BME280;56301;56.864;60.554;2023-02-17T07:13:29;99661.34;;;25.64;29.21
69187;BME280;56301;56.864;60.554;2023-02-17T07:15:52;99657.09;;;25.70;29.48
69187;BME280;56301;56.864;60.554;2023-02-17T07:18:14;99651.19;;;25.75;29.18
69187;BME280;56301;56.864;60.554;2023-02-17T07:20:37;99642.22;;;25.82;29.21
69187;BME280;56301;56.864;60.554;2023-02-17T07:22:59;99649.84;;;25.87;28.52
69187;BME280;56301;56.864;60.554;2023-02-17T07:25:22;99644.09;;;25.90;28.20
69187;BME280;56301;56.864;60.554;2023-02-17T07:27:44;99646.47;;;25.93;28.47
69187;BME280;56301;56.864;60.554;2023-02-17T07:30:07;99650.88;;;25.94;28.31
69187;BME280;56301;56.864;60.554;2023-02-17T07:32:29;99641.69;;;25.95;28.37
69187;BME280;56301;56.864;60.554;2023-02-17T07:34:52;99640.84;;;25.95;28.70
69187;BME280;56301;56.864;60.554;2023-02-17T07:37:14;99633.41;;;25.97;29.40
69187;BME280;56301;56.864;60.554;2023-02-17T07:39:37;99636.28;;;25.95;28.36
69187;BME280;56301;56.864;60.554;2023-02-17T07:42:00;99640.00;;;25.94;28.32
69187;BME280;56301;56.864;60.554;2023-02-17T07:44:22;99639.00;;;25.95;28.82
69187;BME280;56301;56.864;60.554;2023-02-17T07:46:45;99636.28;;;25.95;28.35
69187;BME280;56301;56.864;60.554;2023-02-17T07:49:07;99632.19;;;25.99;28.93
69187;BME280;56301;56.864;60.554;2023-02-17T07:51:30;99621.34;;;25.99;28.88
69187;BME280;56301;56.864;60.554;2023-02-17T07:53:52;99623.22;;;25.99;29.09
69187;BME280;56301;56.864;60.554;2023-02-17T07:56:15;99623.06;;;26.00;29.14
69187;BME280;56301;56.864;60.554;2023-02-17T07:58:38;99617.66;;;26.00;28.87
69187;BME280;56301;56.864;60.554;2023-02-17T08:01:05;99617.66;;;26.00;28.59
69187;BME280;56301;56.864;60.554;2023-02-17T08:03:27;99610.50;;;25.99;28.39
69187;BME280;56301;56.864;60.554;2023-02-17T08:05:50;99603.06;;;26.01;28.26
69187;BME280;56301;56.864;60.554;2023-02-17T08:08:12;99594.94;;;26.01;28.83
69187;BME280;56301;56.864;60.554;2023-02-17T08:10:36;99593.41;;;25.99;28.88
69187;BME280;56301;56.864;60.554;2023-02-17T08:12:58;99585.44;;;25.97;28.56
69187;BME280;56301;56.864;60.554;2023-02-17T08:15:20;99583.06;;;25.94;29.19
69187;BME280;56301;56.864;60.554;2023-02-17T08:17:43;99582.38;;;25.92;28.95
69187;BME280;56301;56.864;60.554;2023-02-17T08:20:06;99577.31;;;25.89;29.31
69187;BME280;56301;56.864;60.554;2023-02-17T08:22:28;99574.97;;;25.86;29.22
69187;BME280;56301;56.864;60.554;2023-02-17T08:24:51;99564.44;;;25.83;29.07
69187;BME280;56301;56.864;60.554;2023-02-17T08:27:14;99562.91;;;25.80;29.09
69187;BME280;56301;56.864;60.554;2023-02-17T08:29:37;99561.91;;;25.81;29.57
69187;BME280;56301;56.864;60.554;2023-02-17T08:31:59;99569.19;;;25.81;29.83
69187;BME280;56301;56.864;60.554;2023-02-17T08:34:22;99572.09;;;25.79;28.99
69187;BME280;56301;56.864;60.554;2023-02-17T08:36:44;99578.34;;;25.80;29.08
69187;BME280;56301;56.864;60.554;2023-02-17T08:39:12;99573.06;;;25.78;29.51
69187;BME280;56301;56.864;60.554;2023-02-17T08:41:36;99572.38;;;25.76;29.87
69187;BME280;56301;56.864;60.554;2023-02-17T08:44:00;99563.09;;;25.79;29.23
69187;BME280;56301;56.864;60.554;2023-02-17T08:46:23;99556.47;;;25.81;29.32
69187;BME280;56301;56.864;60.554;2023-02-17T08:48:45;99554.63;;;25.82;29.27
69187;BME280;56301;56.864;60.554;2023-02-17T08:51:11;99547.34;;;25.82;29.46
69187;BME280;56301;56.864;60.554;2023-02-17T08:53:33;99543.78;;;25.82;29.53
69187;BME280;56301;56.864;60.554;2023-02-17T08:55:56;99544.78;;;25.81;28.97
69187;BME280;56301;56.864;60.554;2023-02-17T08:58:19;99544.13;;;25.79;29.42
69187;BME280;56301;56.864;60.554;2023-02-17T09:00:41;99538.81;;;25.77;29.23
69187;BME280;56301;56.864;60.554;2023-02-17T09:03:04;99531.53;;;25.78;29.96
69187;BME280;56301;56.864;60.554;2023-02-17T09:05:26;99531.72;;;25.76;29.62
69187;BME280;56301;56.864;60.554;2023-02-17T09:07:49;99536.31;;;25.76;29.58
69187;BME280;56301;56.864;60.554;2023-02-17T09:10:11;99526.50;;;25.75;29.88
69187;BME280;56301;56.864;60.554;2023-02-17T09:12:34;99532.06;;;25.73;29.75
69187;BME280;56301;56.864;60.554;2023-02-17T09:14:56;99517.84;;;25.71;29.74
69187;BME280;56301;56.864;60.554;2023-02-17T09:17:19;99524.28;;;25.70;30.51
69187;BME280;56301;56.864;60.554;2023-02-17T09:19:41;99516.31;;;25.68;29.70
69187;BME280;56301;56.864;60.554;2023-02-17T09:22:04;99521.75;;;25.68;30.12
69187;BME280;56301;56.864;60.554;2023-02-17T09:24:26;99521.75;;;25.68;29.61
69187;BME280;56301;56.864;60.554;2023-02-17T09:26:49;99515.28;;;25.69;30.04
69187;BME280;56301;56.864;60.554;2023-02-17T09:29:11;99517.84;;;25.71;29.62
69187;BME280;56301;56.864;60.554;2023-02-17T09:31:34;99516.00;;;25.72;29.59
69187;BME280;56301;56.864;60.554;2023-02-17T09:33:57;99514.28;;;25.70;30.13
69187;BME280;56301;56.864;60.554;2023-02-17T09:36:21;99502.94;;;25.67;29.45
69187;BME280;56301;56.864;60.554;2023-02-17T09:38:44;99502.44;;;25.63;29.82
69187;BME280;56301;56.864;60.554;2023-02-17T09:41:17;99501.91;;;25.60;29.17
69187;BME280;56301;56.864;60.554;2023-02-17T09:43:40;99505.84;;;25.57;29.40
69187;BME280;56301;56.864;60.554;2023-02-17T09:46:07;99494.31;;;25.55;30.26
69187;BME280;56301;56.864;60.554;2023-02-17T09:48:31;99485.03;;;25.50;29.80
69187;BME280;56301;56.864;60.554;2023-02-17T09:50:57;99489.59;;;25.49;30.04
69187;BME280;56301;56.864;60.554;2023-02-17T09:53:23;99486.19;;;25.47;30.11
69187;BME280;56301;56.864;60.554;2023-02-17T09:55:51;99489.94;;;25.46;30.23
69187;BME280;56301;56.864;60.554;2023-02-17T09:58:18;99487.38;;;25.44;29.76
69187;BME280;56301;56.864;60.554;2023-02-17T10:00:55;99481.13;;;25.44;30.05
69187;BME280;56301;56.864;60.554;2023-02-17T10:05:49;99477.06;;;25.40;30.32
69187;BME280;56301;56.864;60.554;2023-02-17T10:08:18;99474.34;;;25.40;30.20
69187;BME280;56301;56.864;60.554;2023-02-17T10:13:34;99456.41;;;25.39;30.07
69187;BME280;56301;56.864;60.554;2023-02-17T10:15:59;99458.09;;;25.40;30.06
69187;BME280;56301;56.864;60.554;2023-02-17T10:18:29;99458.09;;;25.40;30.13
69187;BME280;56301;56.864;60.554;2023-02-17T10:21:00;99458.09;;;25.40;30.29
69187;BME280;56301;56.864;60.554;2023-02-17T10:23:24;99459.78;;;25.41;30.26
69187;BME280;56301;56.864;60.554;2023-02-17T10:28:14;99452.69;;;25.40;30.17
69187;BME280;56301;56.864;60.554;2023-02-17T10:33:16;99446.25;;;25.33;29.68
69187;BME280;56301;56.864;60.554;2023-02-17T10:35:55;99436.78;;;25.29;29.99
69187;BME280;56301;56.864;60.554;2023-02-17T10:39:07;99440.66;;;25.26;30.38
69187;BME280;56301;56.864;60.554;2023-02-17T10:41:03;99440.16;;;25.23;29.70
69187;BME280;56301;56.864;60.554;2023-02-17T10:43:27;99435.94;;;25.20;30.28
69187;BME280;56301;56.864;60.554;2023-02-17T10:45:50;99437.13;;;25.17;30.41
69187;BME280;56301;56.864;60.554;2023-02-17T10:50:39;99426.81;;;25.13;30.02
69187;BME280;56301;56.864;60.554;2023-02-17T10:53:09;99425.28;;;25.10;30.19
69187;BME280;56301;56.864;60.554;2023-02-17T10:55:36;99416.44;;;25.08;29.99
69187;BME280;56301;56.864;60.554;2023-02-17T10:58:02;99412.06;;;25.07;30.48
69187;BME280;56301;56.864;60.554;2023-02-17T11:00:25;99416.78;;;25.05;30.30
69187;BME280;56301;56.864;60.554;2023-02-17T11:02:48;99415.94;;;25.05;30.07
69187;BME280;56301;56.864;60.554;2023-02-17T11:08:22;99409.38;;;24.99;29.68
69187;BME280;56301;56.864;60.554;2023-02-17T11:10:46;99407.50;;;25.00;30.20
69187;BME280;56301;56.864;60.554;2023-02-17T11:13:29;99400.41;;;24.98;30.13
69187;BME280;56301;56.864;60.554;2023-02-17T11:15:53;99395.13;;;24.97;30.08
69187;BME280;56301;56.864;60.554;2023-02-17T11:18:19;99392.63;;;24.95;30.39
69187;BME280;56301;56.864;60.554;2023-02-17T11:20:42;99388.19;;;24.94;30.28
69187;BME280;56301;56.864;60.554;2023-02-17T11:25:36;99394.81;;;24.92;30.05
69187;BME280;56301;56.864;60.554;2023-02-17T11:28:04;99396.69;;;24.91;30.09
69187;BME280;56301;56.864;60.554;2023-02-17T11:30:29;99391.41;;;24.90;30.06
69187;BME280;56301;56.864;60.554;2023-02-17T11:32:52;99393.47;;;24.88;30.51
69187;BME280;56301;56.864;60.554;2023-02-17T11:37:43;99396.16;;;24.88;29.66
69187;BME280;56301;56.864;60.554;2023-02-17T11:40:15;99389.22;;;24.85;29.98
69187;BME280;56301;56.864;60.554;2023-02-17T11:42:38;99378.59;;;24.84;29.58
69187;BME280;56301;56.864;60.554;2023-02-17T11:45:05;99386.69;;;24.84;30.02
69187;BME280;56301;56.864;60.554;2023-02-17T11:55:18;99365.72;;;24.78;30.21
69187;BME280;56301;56.864;60.554;2023-02-17T12:00:27;99356.06;;;24.75;29.70
69187;BME280;56301;56.864;60.554;2023-02-17T12:15:46;99343.38;;;24.67;29.97
69187;BME280;56301;56.864;60.554;2023-02-17T12:21:04;99341.69;;;24.66;29.58
69187;BME280;56301;56.864;60.554;2023-02-17T12:29:01;99327.47;;;24.64;29.43
69187;BME280;56301;56.864;60.554;2023-02-17T12:36:33;99318.72;;;24.62;29.74
69187;BME280;56301;56.864;60.554;2023-02-17T12:38:58;99323.75;;;24.65;29.61
69187;BME280;56301;56.864;60.554;2023-02-17T12:41:23;99321.22;;;24.64;29.92
69187;BME280;56301;56.864;60.554;2023-02-17T12:43:48;99320.38;;;24.63;29.61
69187;BME280;56301;56.864;60.554;2023-02-17T12:46:14;99314.28;;;24.61;29.63
69187;BME280;56301;56.864;60.554;2023-02-17T12:48:38;99309.72;;;24.62;29.78
69187;BME280;56301;56.864;60.554;2023-02-17T12:51:06;99320.38;;;24.63;29.73
69187;BME280;56301;56.864;60.554;2023-02-17T12:55:55;99307.00;;;24.62;29.69
69187;BME280;56301;56.864;60.554;2023-02-17T12:58:19;99307.88;;;24.62;29.47
69187;BME280;56301;56.864;60.554;2023-02-17T13:00:47;99300.75;;;24.61;29.78
69187;BME280;56301;56.864;60.554;2023-02-17T13:03:12;99304.81;;;24.57;29.92
69187;BME280;56301;56.864;60.554;2023-02-17T13:08:04;99306.19;;;24.45;28.13
69187;BME280;56301;56.864;60.554;2023-02-17T13:12:57;99308.69;;;24.30;27.92
69187;BME280;56301;56.864;60.554;2023-02-17T13:15:36;99304.63;;;24.26;27.70
69187;BME280;56301;56.864;60.554;2023-02-17T13:18:00;99301.06;;;24.25;27.64
69187;BME280;56301;56.864;60.554;2023-02-17T13:20:25;99298.03;;;24.20;27.37
69187;BME280;56301;56.864;60.554;2023-02-17T13:22:47;99299.69;;;24.13;28.14
69187;BME280;56301;56.864;60.554;2023-02-17T13:25:11;99287.03;;;24.14;27.96
69187;BME280;56301;56.864;60.554;2023-02-17T13:27:35;99294.28;;;24.21;28.12
69187;BME280;56301;56.864;60.554;2023-02-17T13:32:25;99290.97;;;24.60;29.03
69187;BME280;56301;56.864;60.554;2023-02-17T13:34:48;99281.47;;;24.72;28.95
69187;BME280;56301;56.864;60.554;2023-02-17T13:37:24;99280.44;;;24.82;28.71
69187;BME280;56301;56.864;60.554;2023-02-17T13:40:01;99279.78;;;24.88;28.98
69187;BME280;56301;56.864;60.554;2023-02-17T13:42:35;99282.31;;;24.89;29.10
69187;BME280;56301;56.864;60.554;2023-02-17T13:44:58;99283.63;;;24.93;28.99
69187;BME280;56301;56.864;60.554;2023-02-17T13:47:25;99276.19;;;24.95;28.79
69187;BME280;56301;56.864;60.554;2023-02-17T13:49:51;99270.44;;;24.98;28.10
69187;BME280;56301;56.864;60.554;2023-02-17T13:52:18;99272.63;;;25.03;28.17
69187;BME280;56301;56.864;60.554;2023-02-17T13:57:24;99267.22;;;25.03;27.57
69187;BME280;56301;56.864;60.554;2023-02-17T13:59:47;99268.91;;;25.04;27.56